hero-logo

Top 15 Knowers of HALO Halozyme Therapeutics Inc - 2017-07-21

Rank Fund Result (K)
1 Senzar Asset Management Llc $6,974
2 First Light Asset Management Llc $1,277
3 Endurant Capital Management Lp $542
4 Ellington Management Group Llc $210
5 Cornerstone Capital Management Holdings Llc $159
6 Paloma Partners Management Co $63
7 Stifel Financial Corp $44
8 Verition Fund Management Llc $41
9 Ifp Advisors Inc $8
10 Aperio Group Llc $1
11 Moore Capital Management Lp $0
12 Krilogy Financial Llc $0
13 Dixon Hubard Feinour Brown Inc Va $0
14 Fortaleza Asset Management Inc $0
15 Ladenburg Thalmann Financial Services Inc $0
Price Chart and News From Google Finance for HALO Halozyme Therapeutics Inc
Owner Date Shares Change Price Change Result (K)
Acrospire Investment Management Llc 2017-03-31 -4,600 $3.08 $-14
Amalgamated Bank 2017-03-31 -13 $3.08 $0
Aperio Group Llc 2017-03-31 350 $3.08 $1
A R T Advisors Llc 2017-03-31 -98,205 $3.08 $-302
Baker Bros Advisors Lp 2017-03-31 0 $3.08 $0
California State Teachers Retirement System 2017-03-31 -10,100 $3.08 $-31
Capstone Investment Advisors Llc 2017-03-31 -19,990 $3.08 $-61
Cornerstone Capital Management Holdings Llc 2017-03-31 51,814 $3.08 $159
Dixon Hubard Feinour Brown Inc Va 2017-03-31 0 $3.08 $0
Ellington Management Group Llc 2017-03-31 68,400 $3.08 $210
Endurant Capital Management Lp 2017-03-31 176,100 $3.08 $542
Envestnet Asset Management Inc 2017-03-31 -13 $3.08 $0
First Light Asset Management Llc 2017-03-31 414,611 $3.08 $1,277
First Republic Investment Management Inc 2017-03-31 0 $3.08 $0
Fortaleza Asset Management Inc 2017-03-31 0 $3.08 $0
Guggenheim Capital Llc 2017-03-31 -27,434 $3.08 $-84
Highbridge Capital Management Llc 2017-03-31 -21,770 $3.08 $-67
Horizon Kinetics Llc 2017-03-31 -10,538 $3.08 $-32
Ifp Advisors Inc 2017-03-31 2,850 $3.08 $8
Jacobs Levy Equity Management Inc 2017-03-31 -48,482 $3.08 $-149
Kennedy Capital Management Inc 2017-03-31 -3,284 $3.08 $-10
Krilogy Financial Llc 2017-03-31 0 $3.08 $0
Ladenburg Thalmann Financial Services Inc 2017-03-31 0 $3.08 $0
Moore Capital Management Lp 2017-03-31 0 $3.08 $0
Paloma Partners Management Co 2017-03-31 20,687 $3.08 $63
Schonfeld Strategic Advisors Llc 2017-03-31 -70,428 $3.08 $-216
Secor Capital Advisors Lp 2017-03-31 -154,941 $3.08 $-477
Segall Bryant Hamill Llc 2017-03-31 -20,000 $3.08 $-61
Senzar Asset Management Llc 2017-03-31 2,264,420 $3.08 $6,974
Stifel Financial Corp 2017-03-31 14,600 $3.08 $44
Verition Fund Management Llc 2017-03-31 13,633 $3.08 $41